< < Back
Terminal Aerodrome Forecast


Current Version              Previous Versions:   1  2  3  4  5  6  7  8  9  

Terminal Aerodrome Forecast

074
FTUS42 KFFC 222100 AAC
TAFPDK
TAF AMD
KPDK 222106Z 2221/2318 28007KT P6SM SCT010 BKN050
      TEMPO 2221/2224 5SM -SHRA BR BKN010
     FM230000 30008KT P6SM SCT025 BKN070
     FM230300 32006KT P6SM FEW035
     FM231400 34010KT P6SM FEW040=

Latest METAR

871
SAUS70 KWBC 230700 RRH
MTRPDK
METAR KPDK 230653Z AUTO 28004KT 5SM BR CLR 14/13 A2986 RMK AO2 SLP107
P0001 T01390128


USA.gov is the U.S. government's official web portal to all federal, state and local government web resources and services.